createdAt,value
2022-11-08T00:01:07.099Z,8.70
2022-11-08T00:02:10.696Z,8.70
2022-11-08T00:03:13.280Z,8.80
2022-11-08T00:04:19.657Z,8.80
2022-11-08T00:05:42.526Z,8.80
2022-11-08T00:07:08.016Z,8.80
2022-11-08T00:08:29.148Z,8.90
2022-11-08T00:09:50.444Z,8.80
2022-11-08T00:11:11.480Z,9.00
2022-11-08T00:12:33.074Z,10.50
2022-11-08T00:13:55.984Z,9.00
2022-11-08T00:14:59.619Z,9.00
2022-11-08T00:16:02.030Z,9.00
2022-11-08T00:17:05.392Z,9.00
2022-11-08T00:18:09.436Z,9.00
2022-11-08T00:19:11.881Z,9.00
2022-11-08T00:20:19.828Z,9.00
2022-11-08T00:21:22.258Z,9.10
2022-11-08T00:22:25.794Z,9.10
2022-11-08T00:23:28.030Z,9.10
2022-11-08T00:24:35.960Z,9.10
2022-11-08T00:25:43.786Z,9.10
2022-11-08T00:26:46.307Z,9.10
2022-11-08T00:27:49.778Z,9.20
2022-11-08T00:28:52.134Z,9.10
2022-11-08T00:29:55.495Z,9.10
2022-11-08T00:30:58.140Z,9.10
2022-11-08T00:32:05.745Z,9.20
2022-11-08T00:33:08.216Z,9.20
2022-11-08T00:34:11.979Z,9.20
2022-11-08T00:35:18.496Z,9.20
2022-11-08T00:36:28.893Z,9.10
2022-11-08T00:37:31.177Z,9.20
2022-11-08T00:38:34.654Z,9.20
2022-11-08T00:39:37.084Z,9.20
2022-11-08T00:40:40.659Z,9.20
2022-11-08T00:41:42.841Z,9.20
2022-11-08T00:42:48.245Z,9.20
2022-11-08T00:43:50.707Z,9.20
2022-11-08T00:44:53.989Z,9.20
2022-11-08T00:46:04.883Z,9.20
2022-11-08T00:47:10.282Z,9.30
2022-11-08T00:48:14.391Z,9.30
2022-11-08T00:49:23.640Z,9.40
2022-11-08T00:50:29.130Z,9.30
2022-11-08T00:51:33.221Z,9.40
2022-11-08T00:52:35.420Z,9.40
2022-11-08T00:53:39.590Z,9.40
2022-11-08T00:54:42.000Z,9.30
2022-11-08T00:55:45.507Z,9.30
2022-11-08T00:56:49.075Z,9.40
2022-11-08T00:57:59.529Z,9.40
2022-11-08T00:59:02.482Z,9.40
2022-11-08T01:00:06.643Z,10.20
2022-11-08T01:01:13.200Z,9.40
2022-11-08T01:02:17.095Z,9.40
2022-11-08T01:03:19.512Z,9.50
2022-11-08T01:04:22.902Z,9.50
2022-11-08T01:05:25.531Z,9.40
2022-11-08T01:06:32.297Z,9.50
2022-11-08T01:07:35.812Z,9.40
2022-11-08T01:08:38.436Z,9.40
2022-11-08T01:09:44.773Z,9.50
2022-11-08T01:10:53.202Z,9.50
2022-11-08T01:11:56.416Z,9.50
2022-11-08T01:12:58.996Z,9.50
2022-11-08T01:14:03.435Z,9.40
2022-11-08T01:15:06.352Z,9.50
2022-11-08T01:16:14.910Z,9.50
2022-11-08T01:17:17.210Z,9.50
2022-11-08T01:18:21.227Z,9.50
2022-11-08T01:19:23.582Z,9.50
2022-11-08T01:20:29.253Z,9.50
2022-11-08T01:21:40.440Z,9.60
2022-11-08T01:22:47.317Z,9.60
2022-11-08T01:23:55.132Z,9.60
2022-11-08T01:24:57.624Z,9.60
2022-11-08T01:26:05.729Z,9.60
2022-11-08T01:27:08.284Z,9.60
2022-11-08T01:28:12.419Z,9.50
2022-11-08T01:29:15.714Z,9.60
2022-11-08T01:30:18.433Z,9.50
2022-11-08T01:31:23.585Z,9.50
2022-11-08T01:32:31.137Z,9.60
2022-11-08T01:33:36.695Z,9.60
2022-11-08T01:34:40.031Z,9.50
2022-11-08T01:35:45.714Z,9.60
2022-11-08T01:36:50.289Z,9.60
2022-11-08T01:37:52.777Z,9.60
2022-11-08T01:38:57.741Z,9.60
2022-11-08T01:40:01.183Z,9.60
2022-11-08T01:41:09.114Z,9.70
2022-11-08T01:42:11.634Z,9.70
2022-11-08T01:43:37.122Z,9.60
2022-11-08T01:44:58.858Z,9.70
2022-11-08T01:46:32.063Z,9.70
2022-11-08T01:47:35.476Z,9.70
2022-11-08T01:48:44.343Z,9.70
2022-11-08T01:49:48.210Z,9.70
2022-11-08T01:50:52.245Z,9.80
2022-11-08T01:52:08.802Z,9.70
2022-11-08T01:53:16.218Z,9.70
2022-11-08T01:54:23.676Z,9.70
2022-11-08T01:55:31.930Z,9.60
2022-11-08T01:56:35.920Z,9.70
2022-11-08T01:57:48.493Z,9.70
2022-11-08T01:58:55.709Z,9.70
2022-11-08T02:00:08.515Z,8.60
2022-11-08T02:01:13.211Z,9.70
2022-11-08T02:02:16.854Z,9.70
2022-11-08T02:03:21.180Z,9.80
2022-11-08T02:04:24.491Z,9.80
2022-11-08T02:05:29.941Z,9.80
2022-11-08T02:06:35.975Z,9.80
2022-11-08T02:07:40.655Z,9.80
2022-11-08T02:08:44.921Z,9.80
2022-11-08T02:09:49.278Z,9.80
2022-11-08T02:10:59.054Z,9.80
2022-11-08T02:12:02.946Z,9.80
2022-11-08T02:13:14.466Z,9.80
2022-11-08T02:14:17.880Z,9.80
2022-11-08T02:15:24.326Z,9.80
2022-11-08T02:16:26.574Z,9.80
2022-11-08T02:17:34.134Z,9.80
2022-11-08T02:18:36.802Z,9.80
2022-11-08T02:19:44.694Z,9.80
2022-11-08T02:21:00.250Z,9.80
2022-11-08T02:22:13.170Z,9.80
2022-11-08T02:23:24.325Z,9.80
2022-11-08T02:24:29.711Z,9.80
2022-11-08T02:25:32.032Z,9.80
2022-11-08T02:26:37.533Z,9.80
2022-11-08T02:27:45.640Z,9.80
2022-11-08T02:28:49.525Z,9.80
2022-11-08T02:29:55.124Z,9.70
2022-11-08T02:30:57.479Z,9.70
2022-11-08T02:32:02.686Z,9.80
2022-11-08T02:33:16.400Z,9.70
2022-11-08T02:34:21.844Z,9.70
2022-11-08T02:35:26.268Z,9.70
2022-11-08T02:36:28.490Z,9.60
2022-11-08T02:37:32.236Z,9.60
2022-11-08T02:38:40.889Z,9.60
2022-11-08T02:39:46.441Z,9.60
2022-11-08T02:40:50.435Z,9.60
2022-11-08T02:41:53.723Z,9.60
2022-11-08T02:42:55.999Z,9.60
2022-11-08T02:43:59.410Z,9.60
2022-11-08T02:45:02.692Z,9.60
2022-11-08T02:46:05.414Z,9.60
2022-11-08T02:47:08.931Z,9.60
2022-11-08T02:48:14.294Z,9.60
2022-11-08T02:49:17.995Z,9.60
2022-11-08T02:50:23.196Z,9.60
2022-11-08T02:51:26.567Z,9.60
2022-11-08T02:52:30.028Z,10.20
2022-11-08T02:53:32.656Z,9.60
2022-11-08T02:54:36.186Z,10.40
2022-11-08T02:55:39.951Z,9.60
2022-11-08T02:56:47.524Z,9.70
2022-11-08T02:57:53.034Z,9.70
2022-11-08T02:58:56.349Z,9.70
2022-11-08T02:59:58.622Z,9.70
2022-11-08T03:01:01.911Z,9.80
2022-11-08T03:02:04.362Z,9.70
2022-11-08T03:03:08.429Z,9.70
2022-11-08T03:04:10.729Z,9.70
2022-11-08T03:05:18.585Z,9.70
2022-11-08T03:06:20.945Z,9.80
2022-11-08T03:07:25.086Z,11.20
2022-11-08T03:08:27.576Z,9.70
2022-11-08T03:09:30.835Z,9.80
2022-11-08T03:10:33.158Z,9.80
2022-11-08T03:11:37.729Z,9.80
2022-11-08T03:12:43.132Z,9.80
2022-11-08T03:13:46.587Z,9.80
2022-11-08T03:14:51.840Z,9.80
2022-11-08T03:16:02.980Z,9.90
2022-11-08T03:17:06.485Z,10.60
2022-11-08T03:18:08.734Z,9.90
2022-11-08T03:19:13.052Z,9.90
2022-11-08T03:20:15.333Z,9.90
2022-11-08T03:21:18.864Z,9.90
2022-11-08T03:22:21.235Z,10.60
2022-11-08T03:23:24.574Z,10.00
2022-11-08T03:24:27.011Z,11.00
2022-11-08T03:25:30.425Z,10.00
2022-11-08T03:26:33.368Z,10.00
2022-11-08T03:27:37.951Z,10.00
2022-11-08T03:28:40.445Z,10.00
2022-11-08T03:29:44.322Z,10.00
2022-11-08T03:31:12.612Z,10.00
2022-11-08T03:32:16.958Z,10.00
2022-11-08T03:33:22.858Z,10.00
2022-11-08T03:34:26.041Z,10.00
2022-11-08T03:35:28.779Z,10.00
2022-11-08T03:36:32.011Z,10.00
2022-11-08T03:37:34.511Z,10.00
2022-11-08T03:38:37.852Z,10.00
2022-11-08T03:39:40.137Z,10.00
2022-11-08T03:40:44.314Z,10.00
2022-11-08T03:41:47.584Z,10.00
2022-11-08T03:42:51.483Z,10.00
2022-11-08T03:43:54.734Z,10.00
2022-11-08T03:44:57.022Z,10.00
2022-11-08T03:46:00.170Z,10.00
2022-11-08T03:47:02.834Z,10.00
2022-11-08T03:48:06.433Z,10.00
2022-11-08T03:49:08.820Z,11.70
2022-11-08T03:50:14.098Z,10.00
2022-11-08T03:51:17.398Z,10.00
2022-11-08T03:52:19.794Z,10.00
2022-11-08T03:53:23.206Z,10.00
2022-11-08T03:54:25.465Z,10.00
2022-11-08T03:55:29.905Z,10.00
2022-11-08T03:56:32.189Z,10.00
2022-11-08T03:57:35.617Z,10.00
2022-11-08T03:58:40.376Z,10.00
2022-11-08T03:59:43.670Z,10.00
2022-11-08T04:00:47.003Z,10.00
2022-11-08T04:01:49.473Z,10.00
2022-11-08T04:02:53.315Z,10.00
2022-11-08T04:03:56.801Z,10.00
2022-11-08T04:04:59.410Z,10.00
2022-11-08T04:06:03.488Z,10.00
2022-11-08T04:07:05.832Z,10.00
2022-11-08T04:08:09.233Z,10.00
2022-11-08T04:09:11.532Z,10.00
2022-11-08T04:10:43.178Z,10.00
2022-11-08T04:12:04.003Z,10.00
2022-11-08T04:13:25.147Z,10.00
2022-11-08T04:14:47.697Z,10.00
2022-11-08T04:15:57.404Z,10.00
2022-11-08T04:16:59.716Z,10.10
2022-11-08T04:18:21.096Z,10.00
2022-11-08T04:19:42.421Z,10.00
2022-11-08T04:21:05.249Z,9.90
2022-11-08T04:22:12.774Z,9.90
2022-11-08T04:23:16.045Z,9.90
2022-11-08T04:24:19.402Z,9.90
2022-11-08T04:25:21.695Z,9.90
2022-11-08T04:26:25.665Z,9.90
2022-11-08T04:27:27.855Z,9.90
2022-11-08T04:28:33.785Z,9.90
2022-11-08T04:29:38.506Z,9.90
2022-11-08T04:30:40.726Z,9.90
2022-11-08T04:31:44.555Z,10.00
2022-11-08T04:32:46.858Z,10.40
2022-11-08T04:33:50.230Z,9.90
2022-11-08T04:34:52.799Z,9.90
2022-11-08T04:35:56.467Z,9.90
2022-11-08T04:37:07.627Z,9.90
2022-11-08T04:38:09.982Z,9.90
2022-11-08T04:39:13.402Z,9.90
2022-11-08T04:40:15.783Z,9.90
2022-11-08T04:41:21.494Z,9.90
2022-11-08T04:42:24.039Z,9.80
2022-11-08T04:43:27.453Z,9.80
2022-11-08T04:44:29.838Z,9.40
2022-11-08T04:45:34.486Z,9.80
2022-11-08T04:46:38.056Z,9.80
2022-11-08T04:47:45.707Z,9.80
2022-11-08T04:48:52.891Z,9.80
2022-11-08T04:49:55.172Z,9.80
2022-11-08T04:51:03.522Z,9.80
2022-11-08T04:52:06.791Z,9.80
2022-11-08T04:53:11.224Z,9.80
2022-11-08T04:54:14.836Z,9.80
2022-11-08T04:55:17.261Z,9.80
2022-11-08T04:56:22.320Z,9.80
2022-11-08T04:57:24.826Z,11.40
2022-11-08T04:58:28.505Z,9.80
2022-11-08T04:59:31.075Z,9.70
2022-11-08T05:00:35.848Z,9.80
2022-11-08T05:01:38.240Z,9.80
2022-11-08T05:02:42.417Z,9.80
2022-11-08T05:03:49.711Z,9.80
2022-11-08T05:04:55.777Z,9.80
2022-11-08T05:06:01.208Z,9.80
2022-11-08T05:07:04.627Z,9.80
2022-11-08T05:08:06.975Z,9.70
2022-11-08T05:09:11.399Z,9.70
2022-11-08T05:10:18.144Z,9.30
2022-11-08T05:11:23.998Z,9.70
2022-11-08T05:12:26.343Z,9.70
2022-11-08T05:13:30.201Z,9.70
2022-11-08T05:14:32.528Z,9.60
2022-11-08T05:15:37.349Z,9.70
2022-11-08T05:16:42.540Z,9.60
2022-11-08T05:17:46.013Z,9.60
2022-11-08T05:18:48.710Z,9.60
2022-11-08T05:20:09.907Z,11.10
2022-11-08T05:21:32.705Z,9.60
2022-11-08T05:22:53.000Z,9.60
2022-11-08T05:24:02.418Z,9.60
2022-11-08T05:25:05.537Z,9.50
2022-11-08T05:26:09.254Z,9.50
2022-11-08T05:27:11.528Z,9.50
2022-11-08T05:28:15.296Z,9.50
2022-11-08T05:29:21.976Z,9.50
2022-11-08T05:30:24.285Z,9.50
2022-11-08T05:31:29.159Z,9.40
2022-11-08T05:32:31.532Z,9.40
2022-11-08T05:33:35.353Z,9.40
2022-11-08T05:34:37.674Z,9.40
2022-11-08T05:35:43.756Z,8.50
2022-11-08T05:36:46.037Z,9.40
2022-11-08T05:37:50.136Z,9.30
2022-11-08T05:38:52.918Z,9.40
2022-11-08T05:39:56.557Z,9.30
2022-11-08T05:41:03.702Z,9.30
2022-11-08T05:42:07.360Z,9.30
2022-11-08T05:43:10.502Z,9.20
2022-11-08T05:44:14.128Z,9.20
2022-11-08T05:45:16.662Z,9.20
2022-11-08T05:46:22.411Z,9.20
2022-11-08T05:47:28.621Z,9.20
2022-11-08T05:48:31.836Z,9.20
2022-11-08T05:49:34.279Z,9.20
2022-11-08T05:50:42.227Z,9.20
2022-11-08T05:51:46.674Z,9.20
2022-11-08T05:52:50.078Z,9.20
2022-11-08T05:53:52.497Z,9.10
2022-11-08T05:55:00.135Z,9.20
2022-11-08T05:56:08.991Z,9.20
2022-11-08T05:57:12.486Z,9.20
2022-11-08T05:58:15.915Z,9.10
2022-11-08T05:59:18.402Z,9.10
2022-11-08T06:00:22.007Z,9.20
2022-11-08T06:01:24.490Z,9.10
2022-11-08T06:02:30.176Z,9.10
2022-11-08T06:03:33.170Z,9.20
2022-11-08T06:04:39.880Z,9.20
2022-11-08T06:05:43.386Z,9.20
2022-11-08T06:06:46.651Z,9.20
2022-11-08T06:07:50.204Z,9.20
2022-11-08T06:08:54.866Z,9.30
2022-11-08T06:09:58.299Z,9.30
2022-11-08T06:11:04.913Z,9.30
2022-11-08T06:12:08.756Z,9.30
2022-11-08T06:13:11.219Z,9.30
2022-11-08T06:14:14.431Z,9.40
2022-11-08T06:15:17.831Z,9.40
2022-11-08T06:16:21.931Z,9.50
2022-11-08T06:17:27.665Z,9.50
2022-11-08T06:18:34.041Z,9.60
2022-11-08T06:19:37.276Z,9.60
2022-11-08T06:20:41.928Z,9.70
2022-11-08T06:21:45.207Z,9.80
2022-11-08T06:22:47.881Z,9.80
2022-11-08T06:23:56.627Z,9.90
2022-11-08T06:25:03.100Z,10.00
2022-11-08T06:26:08.507Z,10.00
2022-11-08T06:27:11.764Z,10.20
2022-11-08T06:28:14.740Z,9.40
2022-11-08T06:29:22.435Z,10.40
2022-11-08T06:30:28.847Z,10.40
2022-11-08T06:31:41.891Z,10.50
2022-11-08T06:32:50.507Z,10.60
2022-11-08T06:33:54.156Z,10.70
2022-11-08T06:34:57.541Z,10.70
2022-11-08T06:36:00.165Z,10.70
2022-11-08T06:37:03.360Z,10.70
2022-11-08T06:38:09.281Z,10.60
2022-11-08T06:39:13.026Z,10.70
2022-11-08T06:40:15.530Z,9.10
2022-11-08T06:41:21.158Z,11.00
2022-11-08T06:42:24.665Z,11.10
2022-11-08T06:43:27.179Z,11.30
2022-11-08T06:44:30.879Z,11.50
2022-11-08T06:45:33.698Z,11.60
2022-11-08T06:46:36.887Z,11.70
2022-11-08T06:47:40.256Z,11.70
2022-11-08T06:48:42.685Z,11.70
2022-11-08T06:49:47.406Z,11.70
2022-11-08T06:50:50.010Z,11.70
2022-11-08T06:51:53.807Z,11.60
2022-11-08T06:52:59.246Z,11.60
2022-11-08T06:54:08.807Z,11.60
2022-11-08T06:55:12.556Z,11.50
2022-11-08T06:56:14.816Z,11.40
2022-11-08T06:57:18.016Z,11.20
2022-11-08T06:58:20.261Z,11.20
2022-11-08T06:59:24.129Z,11.20
2022-11-08T07:00:27.979Z,11.10
2022-11-08T07:01:31.723Z,11.10
2022-11-08T07:02:34.112Z,11.10
2022-11-08T07:03:40.110Z,11.00
2022-11-08T07:04:48.138Z,10.90
2022-11-08T07:05:50.582Z,11.30
2022-11-08T07:06:53.873Z,10.90
2022-11-08T07:07:58.121Z,10.80
2022-11-08T07:09:01.424Z,10.80
2022-11-08T07:10:04.942Z,10.80
2022-11-08T07:11:09.650Z,10.80
2022-11-08T07:12:13.748Z,10.80
2022-11-08T07:13:16.871Z,10.80
2022-11-08T07:14:21.257Z,10.80
2022-11-08T07:15:23.637Z,10.80
2022-11-08T07:16:28.065Z,10.80
2022-11-08T07:17:35.721Z,10.70
2022-11-08T07:18:42.654Z,10.80
2022-11-08T07:19:47.516Z,10.90
2022-11-08T07:20:50.808Z,11.10
2022-11-08T07:21:54.380Z,11.40
2022-11-08T07:22:57.893Z,11.50
2022-11-08T07:24:01.217Z,11.80
2022-11-08T07:25:03.822Z,12.00
2022-11-08T07:26:08.971Z,12.30
2022-11-08T07:27:11.364Z,12.50
2022-11-08T07:28:24.711Z,12.60
2022-11-08T07:29:28.169Z,12.70
2022-11-08T07:30:31.299Z,12.80
2022-11-08T07:31:34.628Z,12.90
2022-11-08T07:32:36.977Z,13.00
2022-11-08T07:33:40.645Z,13.20
2022-11-08T07:34:43.083Z,13.50
2022-11-08T07:35:48.285Z,13.80
2022-11-08T07:36:51.622Z,13.80
2022-11-08T07:37:55.244Z,14.00
2022-11-08T07:39:01.179Z,14.10
2022-11-08T07:40:07.982Z,14.20
2022-11-08T07:41:11.292Z,14.50
2022-11-08T07:42:14.535Z,14.70
2022-11-08T07:43:17.016Z,14.70
2022-11-08T07:44:20.409Z,14.80
2022-11-08T07:45:25.870Z,15.00
2022-11-08T07:46:29.249Z,15.20
2022-11-08T07:47:31.543Z,15.30
2022-11-08T07:48:35.944Z,15.60
2022-11-08T07:49:38.358Z,15.70
2022-11-08T07:50:43.174Z,15.90
2022-11-08T07:51:47.982Z,16.20
2022-11-08T07:52:51.170Z,16.20
2022-11-08T07:53:56.225Z,16.30
2022-11-08T07:55:01.573Z,16.50
2022-11-08T07:56:05.291Z,16.70
2022-11-08T07:57:07.853Z,16.80
2022-11-08T07:58:12.275Z,16.90
2022-11-08T07:59:18.945Z,17.00
2022-11-08T08:00:21.616Z,17.00
2022-11-08T08:01:25.227Z,17.10
2022-11-08T08:02:27.575Z,17.10
2022-11-08T08:03:31.437Z,17.20
2022-11-08T08:04:35.068Z,17.20
2022-11-08T08:05:39.546Z,17.20
2022-11-08T08:06:42.939Z,17.20
2022-11-08T08:07:46.537Z,17.20
2022-11-08T08:08:49.937Z,17.20
2022-11-08T08:09:52.393Z,17.20
2022-11-08T08:10:58.675Z,17.30
2022-11-08T08:12:02.247Z,17.40
2022-11-08T08:13:06.526Z,17.40
2022-11-08T08:14:09.939Z,17.50
2022-11-08T08:15:12.507Z,17.60
2022-11-08T08:16:15.660Z,17.60
2022-11-08T08:17:18.033Z,17.60
2022-11-08T08:18:21.792Z,17.60
2022-11-08T08:19:24.392Z,17.70
2022-11-08T08:20:27.851Z,17.50
2022-11-08T08:21:31.310Z,16.80
2022-11-08T08:22:33.802Z,17.80
2022-11-08T08:23:38.679Z,17.80
2022-11-08T08:24:41.703Z,17.90
2022-11-08T08:25:45.462Z,17.90
2022-11-08T08:26:48.898Z,17.90
2022-11-08T08:27:54.147Z,18.10
2022-11-08T08:28:57.534Z,18.20
2022-11-08T08:30:03.772Z,18.30
2022-11-08T08:31:08.282Z,18.40
2022-11-08T08:32:10.561Z,18.50
2022-11-08T08:33:31.399Z,18.50
2022-11-08T08:34:34.844Z,18.50
2022-11-08T08:35:39.321Z,18.60
2022-11-08T08:36:43.369Z,18.60
2022-11-08T08:37:48.263Z,18.70
2022-11-08T08:38:53.060Z,18.70
2022-11-08T08:39:55.377Z,18.80
2022-11-08T08:41:02.483Z,18.80
2022-11-08T08:42:05.923Z,18.80
2022-11-08T08:43:08.289Z,18.90
2022-11-08T08:44:11.946Z,18.90
2022-11-08T08:45:15.373Z,18.90
2022-11-08T08:46:18.913Z,18.90
2022-11-08T08:47:21.320Z,18.90
2022-11-08T08:48:24.741Z,18.90
2022-11-08T08:49:28.295Z,19.00
2022-11-08T08:50:34.643Z,19.00
2022-11-08T08:51:38.350Z,19.00
2022-11-08T08:52:42.331Z,19.00
2022-11-08T08:53:45.815Z,19.10
2022-11-08T08:54:49.656Z,19.00
2022-11-08T08:55:53.407Z,19.00
2022-11-08T08:56:57.023Z,19.00
2022-11-08T08:58:00.823Z,19.70
2022-11-08T09:01:51.506Z,19.00
2022-11-08T09:02:54.850Z,18.90
2022-11-08T09:03:59.601Z,18.90
2022-11-08T09:05:03.266Z,18.90
2022-11-08T09:06:06.796Z,19.00
2022-11-08T09:07:10.500Z,19.00
2022-11-08T09:08:14.714Z,19.00
2022-11-08T09:09:18.425Z,19.10
2022-11-08T09:10:23.974Z,19.10
2022-11-08T09:11:27.301Z,19.20
2022-11-08T09:12:29.960Z,19.10
2022-11-08T09:13:36.850Z,19.10
2022-11-08T09:14:39.634Z,19.00
2022-11-08T09:15:43.054Z,19.40
2022-11-08T09:16:45.582Z,18.90
2022-11-08T09:17:49.072Z,18.70
2022-11-08T09:18:55.131Z,18.60
2022-11-08T09:19:58.811Z,18.70
2022-11-08T09:21:01.685Z,18.70
2022-11-08T09:22:05.160Z,18.80
2022-11-08T09:23:07.571Z,18.80
2022-11-08T09:24:11.059Z,18.80
2022-11-08T09:25:14.759Z,18.80
2022-11-08T09:26:19.539Z,18.90
2022-11-08T09:27:21.933Z,19.00
2022-11-08T09:28:30.731Z,19.10
2022-11-08T09:29:35.607Z,19.00
2022-11-08T09:30:41.731Z,19.00
2022-11-08T09:31:45.053Z,19.00
2022-11-08T09:33:00.413Z,18.90
2022-11-08T09:34:04.948Z,18.90
2022-11-08T09:35:08.739Z,18.70
2022-11-08T09:36:15.607Z,18.80
2022-11-08T09:37:19.446Z,18.80
2022-11-08T09:38:27.282Z,18.90
2022-11-08T09:39:29.779Z,19.00
2022-11-08T09:40:46.569Z,19.00
2022-11-08T09:42:18.837Z,19.10
2022-11-08T09:43:45.115Z,19.10
2022-11-08T09:45:19.452Z,19.10
2022-11-08T09:46:38.097Z,19.10
2022-11-08T09:47:43.865Z,19.10
2022-11-08T09:48:54.764Z,19.00
2022-11-08T09:50:05.455Z,18.80
2022-11-08T09:51:15.589Z,19.50
2022-11-08T09:52:25.927Z,18.70
2022-11-08T09:53:37.718Z,18.60
2022-11-08T09:54:47.075Z,18.70
2022-11-08T09:55:57.959Z,18.70
2022-11-08T09:57:05.434Z,18.80
2022-11-08T09:58:25.260Z,18.70
2022-11-08T09:59:38.691Z,18.70
2022-11-08T10:00:41.522Z,18.60
2022-11-08T10:01:44.766Z,18.60
2022-11-08T10:02:47.332Z,18.60
2022-11-08T10:03:55.303Z,18.40
2022-11-08T10:05:03.885Z,18.40
2022-11-08T10:06:44.122Z,18.50
2022-11-08T10:07:59.231Z,18.50
2022-11-08T10:09:16.856Z,18.50
2022-11-08T10:10:41.276Z,18.40
2022-11-08T10:12:02.028Z,18.40
2022-11-08T10:13:15.134Z,18.30
2022-11-08T10:14:45.306Z,18.40
2022-11-08T10:16:03.492Z,18.20
2022-11-08T10:17:33.461Z,18.20
2022-11-08T10:19:01.886Z,18.30
2022-11-08T10:20:20.088Z,18.30
2022-11-08T10:21:53.370Z,18.30
2022-11-08T10:23:08.772Z,18.30
2022-11-08T10:24:21.240Z,18.30
2022-11-08T10:25:27.867Z,18.20
2022-11-08T10:26:38.475Z,18.20
2022-11-08T10:27:45.031Z,18.40
2022-11-08T10:28:55.945Z,18.50
2022-11-08T10:30:05.024Z,18.60
2022-11-08T10:31:11.276Z,18.60
2022-11-08T10:32:21.511Z,18.70
2022-11-08T10:33:30.840Z,18.70
2022-11-08T10:34:45.356Z,18.80
2022-11-08T10:35:57.803Z,18.90
2022-11-08T10:37:07.645Z,18.90
2022-11-08T10:38:20.016Z,18.80
2022-11-08T10:39:28.271Z,18.60
2022-11-08T10:40:42.213Z,18.70
2022-11-08T10:41:53.948Z,18.70
2022-11-08T10:43:09.193Z,18.80
2022-11-08T10:44:17.790Z,18.80
2022-11-08T10:45:20.496Z,18.80
2022-11-08T10:46:41.533Z,18.70
2022-11-08T10:47:47.540Z,18.70
2022-11-08T10:48:51.440Z,18.70
2022-11-08T10:49:59.545Z,18.60
2022-11-08T10:51:06.604Z,18.60
2022-11-08T10:52:19.580Z,18.70
2022-11-08T10:53:28.252Z,18.70
2022-11-08T10:54:50.607Z,18.60
2022-11-08T10:56:00.856Z,18.50
2022-11-08T10:57:04.457Z,18.50
2022-11-08T10:58:30.076Z,18.50
2022-11-08T10:59:34.773Z,18.50
2022-11-08T11:00:38.496Z,18.40
2022-11-08T11:01:51.040Z,18.30
2022-11-08T11:02:57.167Z,18.30
2022-11-08T11:04:27.243Z,18.30
2022-11-08T11:05:35.346Z,18.30
2022-11-08T11:06:38.674Z,18.30
2022-11-08T11:07:41.346Z,18.30
2022-11-08T11:08:50.978Z,18.30
2022-11-08T11:09:53.491Z,18.30
2022-11-08T11:10:57.716Z,18.30
2022-11-08T11:12:02.714Z,18.30
2022-11-08T11:13:09.198Z,18.30
2022-11-08T11:14:22.162Z,18.20
2022-11-08T11:15:32.055Z,18.30
2022-11-08T11:16:37.354Z,18.20
2022-11-08T11:17:40.360Z,18.20
2022-11-08T11:18:50.643Z,18.10
2022-11-08T11:19:56.149Z,18.20
2022-11-08T11:21:08.463Z,18.10
2022-11-08T11:22:15.461Z,18.10
2022-11-08T11:23:17.992Z,18.10
2022-11-08T11:24:22.787Z,18.20
2022-11-08T11:25:27.333Z,18.30
2022-11-08T11:26:35.587Z,18.40
2022-11-08T11:27:38.880Z,18.50
2022-11-08T11:29:07.132Z,18.50
2022-11-08T11:30:31.770Z,18.50
2022-11-08T11:31:37.797Z,18.50
2022-11-08T11:32:59.857Z,18.50
2022-11-08T11:34:36.569Z,18.40
2022-11-08T11:35:48.243Z,18.40
2022-11-08T11:36:56.523Z,18.40
2022-11-08T11:38:05.031Z,18.40
2022-11-08T11:39:16.997Z,18.50
2022-11-08T11:40:31.003Z,18.50
2022-11-08T11:41:45.554Z,18.50
2022-11-08T11:43:00.943Z,18.50
2022-11-08T11:44:16.386Z,18.60
2022-11-08T11:45:25.071Z,18.60
2022-11-08T11:46:41.565Z,18.50
2022-11-08T11:47:48.224Z,18.50
2022-11-08T11:49:01.713Z,18.50
2022-11-08T11:50:16.500Z,18.50
2022-11-08T11:51:19.981Z,18.60
2022-11-08T11:52:22.580Z,18.40
2022-11-08T11:53:30.802Z,18.40
2022-11-08T11:54:36.432Z,18.30
2022-11-08T11:56:15.081Z,18.10
2022-11-08T11:57:31.282Z,18.10
2022-11-08T11:59:09.063Z,18.10
2022-11-08T12:00:16.272Z,18.00
2022-11-08T12:01:43.551Z,17.90
2022-11-08T12:03:23.794Z,17.50
2022-11-08T12:04:48.283Z,17.50
2022-11-08T12:06:22.525Z,17.50
2022-11-08T12:07:30.608Z,17.50
2022-11-08T12:08:49.467Z,17.70
2022-11-08T12:10:05.913Z,17.10
2022-11-08T12:11:29.439Z,17.40
2022-11-08T12:12:45.449Z,17.40
2022-11-08T12:14:07.618Z,17.40
2022-11-08T12:15:23.926Z,17.40
2022-11-08T12:16:39.211Z,17.40
2022-11-08T12:18:36.563Z,17.40
2022-11-08T12:19:52.871Z,17.20
2022-11-08T12:21:07.888Z,17.10
2022-11-08T12:22:35.985Z,17.20
2022-11-08T12:24:18.384Z,17.10
2022-11-08T12:25:32.899Z,17.20
2022-11-08T12:26:49.908Z,17.20
2022-11-08T12:27:58.426Z,17.30
2022-11-08T12:29:26.834Z,17.20
2022-11-08T12:30:42.243Z,17.20
2022-11-08T12:32:08.458Z,17.20
2022-11-08T12:33:28.115Z,17.30
2022-11-08T12:34:49.540Z,17.10
2022-11-08T12:36:10.785Z,17.10
2022-11-08T12:37:26.356Z,17.00
2022-11-08T12:38:37.980Z,16.90
2022-11-08T12:39:47.014Z,17.00
2022-11-08T12:41:02.124Z,16.90
2022-11-08T12:42:26.149Z,16.80
2022-11-08T12:43:59.542Z,17.00
2022-11-08T12:45:24.256Z,16.90
2022-11-08T12:46:34.585Z,16.90
2022-11-08T12:47:49.027Z,16.90
2022-11-08T12:49:15.717Z,16.90
2022-11-08T12:50:28.787Z,16.90
2022-11-08T12:51:45.755Z,16.80
2022-11-08T12:54:52.083Z,16.90
2022-11-08T12:55:59.772Z,17.00
2022-11-08T12:57:10.114Z,17.00
2022-11-08T12:58:31.681Z,17.10
2022-11-08T12:59:43.682Z,17.10
2022-11-08T13:00:54.275Z,17.20
2022-11-08T13:02:03.936Z,17.20
2022-11-08T13:03:33.571Z,17.20
2022-11-08T13:04:58.866Z,17.20
2022-11-08T13:06:12.683Z,17.30
2022-11-08T13:07:25.460Z,17.30
2022-11-08T13:08:36.919Z,17.20
2022-11-08T13:09:50.303Z,17.00
2022-11-08T13:11:04.357Z,17.00
2022-11-08T13:12:33.706Z,16.90
2022-11-08T13:13:49.218Z,16.80
2022-11-08T13:14:53.241Z,16.90
2022-11-08T13:16:15.896Z,16.80
2022-11-08T13:17:26.818Z,16.70
2022-11-08T13:18:37.218Z,16.70
2022-11-08T13:20:08.365Z,16.70
2022-11-08T13:21:38.104Z,16.50
2022-11-08T13:23:01.258Z,16.40
2022-11-08T13:24:50.592Z,16.40
2022-11-08T13:26:00.051Z,16.30
2022-11-08T13:27:28.001Z,16.20
2022-11-08T13:28:47.976Z,16.20
2022-11-08T13:29:52.439Z,16.20
2022-11-08T13:31:03.520Z,16.20
2022-11-08T13:32:19.740Z,16.20
2022-11-08T13:33:31.652Z,16.10
2022-11-08T13:34:50.889Z,16.00
2022-11-08T13:36:10.106Z,16.00
2022-11-08T13:37:32.594Z,16.00
2022-11-08T13:38:54.718Z,16.00
2022-11-08T13:40:23.167Z,15.90
2022-11-08T13:41:28.126Z,15.90
2022-11-08T13:42:39.890Z,15.90
2022-11-08T13:43:43.748Z,15.80
2022-11-08T13:45:00.450Z,15.80
2022-11-08T13:46:41.047Z,15.70
2022-11-08T13:47:57.674Z,15.80
2022-11-08T13:49:06.482Z,15.70
2022-11-08T13:50:47.813Z,15.70
2022-11-08T13:51:52.753Z,15.70
2022-11-08T13:53:04.349Z,15.80
2022-11-08T13:54:49.701Z,15.80
2022-11-08T13:55:56.987Z,15.80
2022-11-08T13:57:01.078Z,15.70
2022-11-08T13:58:31.199Z,15.70
2022-11-08T13:59:58.829Z,15.60
2022-11-08T14:01:04.850Z,15.60
2022-11-08T14:02:34.232Z,15.60
2022-11-08T14:03:56.954Z,15.60
2022-11-08T14:05:21.320Z,15.50
2022-11-08T14:06:36.489Z,15.60
2022-11-08T14:07:48.255Z,15.00
2022-11-08T14:09:02.390Z,15.50
2022-11-08T14:10:22.660Z,15.50
2022-11-08T14:11:45.152Z,15.50
2022-11-08T14:12:59.653Z,15.50
2022-11-08T14:14:39.618Z,15.50
2022-11-08T14:15:48.097Z,15.50
2022-11-08T14:17:10.177Z,15.40
2022-11-08T14:18:24.965Z,15.40
2022-11-08T14:19:31.935Z,15.50
2022-11-08T14:20:39.850Z,15.40
2022-11-08T14:21:52.840Z,15.40
2022-11-08T14:22:57.280Z,15.40
2022-11-08T14:24:03.271Z,15.40
2022-11-08T14:25:19.501Z,15.30
2022-11-08T14:26:26.082Z,15.20
2022-11-08T14:27:38.234Z,15.20
2022-11-08T14:28:43.271Z,15.20
2022-11-08T14:30:01.341Z,15.10
2022-11-08T14:31:07.878Z,15.10
2022-11-08T14:32:20.280Z,15.10
2022-11-08T14:33:26.011Z,15.10
2022-11-08T14:34:34.981Z,15.10
2022-11-08T14:35:37.429Z,15.10
2022-11-08T14:36:45.331Z,15.10
2022-11-08T14:37:50.656Z,15.10
2022-11-08T14:39:04.053Z,15.10
2022-11-08T14:40:07.497Z,15.10
2022-11-08T14:41:20.927Z,15.00
2022-11-08T14:42:26.831Z,15.00
2022-11-08T14:43:32.414Z,13.70
2022-11-08T14:44:36.672Z,14.90
2022-11-08T14:45:44.977Z,14.90
2022-11-08T14:46:49.680Z,14.90
2022-11-08T14:47:56.373Z,14.90
2022-11-08T14:49:07.811Z,14.90
2022-11-08T14:50:18.804Z,14.80
2022-11-08T14:51:23.158Z,14.80
2022-11-08T14:52:30.936Z,14.90
2022-11-08T14:53:47.462Z,14.80
2022-11-08T14:55:02.819Z,14.80
2022-11-08T14:56:19.308Z,14.80